createdAt,value
2023-03-31T00:00:24.446Z,193.22
2023-03-31T00:03:34.552Z,191.31
2023-03-31T00:06:43.064Z,188.55
2023-03-31T00:10:10.394Z,192.99
2023-03-31T00:13:22.389Z,195.52
2023-03-31T00:16:29.913Z,186.56
2023-03-31T00:19:36.293Z,196.13
2023-03-31T00:22:47.082Z,197.99
2023-03-31T00:25:55.699Z,197.68
2023-03-31T00:29:04.556Z,204.92
2023-03-31T00:32:11.088Z,213.43
2023-03-31T00:35:18.257Z,217.60
2023-03-31T00:38:24.962Z,212.37
2023-03-31T00:41:34.775Z,207.30
2023-03-31T00:45:18.415Z,215.12
2023-03-31T00:48:27.972Z,212.66
2023-03-31T00:51:38.829Z,217.68
2023-03-31T00:54:52.733Z,221.96
2023-03-31T00:58:04.431Z,213.28
2023-03-31T01:01:11.449Z,206.71
2023-03-31T01:04:24.298Z,202.36
2023-03-31T01:07:43.817Z,196.88
2023-03-31T01:10:57.143Z,199.54
2023-03-31T01:14:07.224Z,195.50
2023-03-31T01:17:19.623Z,197.76
2023-03-31T01:20:51.095Z,209.00
2023-03-31T01:24:36.160Z,226.25
2023-03-31T01:28:25.104Z,254.30
2023-03-31T01:32:19.185Z,263.75
2023-03-31T01:36:12.795Z,272.06
2023-03-31T01:40:14.027Z,247.78
2023-03-31T01:43:32.495Z,248.35
2023-03-31T01:46:55.473Z,241.39
2023-03-31T01:50:14.303Z,254.45
2023-03-31T01:53:35.638Z,249.55
2023-03-31T01:56:56.101Z,224.51
2023-03-31T02:00:11.893Z,230.87
2023-03-31T02:03:33.385Z,236.95
2023-03-31T02:06:50.333Z,247.76
2023-03-31T02:10:16.354Z,237.73
2023-03-31T02:13:34.620Z,224.46
2023-03-31T02:16:48.117Z,213.32
2023-03-31T02:19:57.371Z,224.53
2023-03-31T02:23:05.843Z,240.17
2023-03-31T02:26:19.752Z,258.99
2023-03-31T02:29:31.908Z,288.06
2023-03-31T02:32:43.921Z,302.02
2023-03-31T02:35:51.954Z,261.97
2023-03-31T02:39:09.568Z,217.56
2023-03-31T02:42:16.747Z,181.15
2023-03-31T02:45:48.420Z,155.25
2023-03-31T02:49:05.104Z,159.55
2023-03-31T02:53:01.655Z,154.60
2023-03-31T02:56:44.019Z,157.71
2023-03-31T03:00:20.387Z,159.23
2023-03-31T03:03:53.359Z,182.23
2023-03-31T03:07:15.859Z,186.02
2023-03-31T03:10:43.801Z,190.26
2023-03-31T03:14:05.805Z,183.70
2023-03-31T03:17:21.849Z,171.07
2023-03-31T03:20:30.777Z,145.50
2023-03-31T03:23:37.628Z,129.26
2023-03-31T03:26:45.111Z,125.39
2023-03-31T03:29:52.126Z,117.11
2023-03-31T03:32:59.196Z,127.01
2023-03-31T03:36:12.965Z,131.36
2023-03-31T03:39:19.929Z,131.39
2023-03-31T03:42:26.911Z,131.08
2023-03-31T03:45:32.880Z,134.13
2023-03-31T03:48:41.988Z,145.17
2023-03-31T03:51:51.034Z,138.83
2023-03-31T03:54:57.882Z,152.55
2023-03-31T03:58:03.935Z,147.98
2023-03-31T04:01:10.952Z,150.37
2023-03-31T04:04:17.171Z,152.31
2023-03-31T04:07:27.385Z,151.30
2023-03-31T04:10:33.594Z,151.45
2023-03-31T04:13:40.585Z,155.04
2023-03-31T04:16:47.111Z,151.66
2023-03-31T04:19:54.063Z,149.39
2023-03-31T04:23:03.010Z,146.98
2023-03-31T04:26:10.705Z,143.21
2023-03-31T04:29:20.934Z,147.57
2023-03-31T04:32:28.686Z,154.71
2023-03-31T04:35:49.998Z,153.76
2023-03-31T04:38:59.551Z,154.18
2023-03-31T04:42:05.618Z,154.43
2023-03-31T04:45:14.296Z,156.16
2023-03-31T04:48:20.379Z,151.07
2023-03-31T04:51:27.169Z,150.21
2023-03-31T04:54:35.790Z,145.99
2023-03-31T04:57:42.646Z,152.78
2023-03-31T05:00:48.708Z,154.35
2023-03-31T05:03:55.632Z,151.92
2023-03-31T05:07:01.732Z,147.66
2023-03-31T05:10:12.664Z,149.17
2023-03-31T05:13:19.198Z,158.26
2023-03-31T05:16:26.192Z,162.97
2023-03-31T05:19:32.602Z,166.24
2023-03-31T05:22:43.858Z,161.67
2023-03-31T05:25:56.704Z,153.50
2023-03-31T05:29:08.720Z,141.24
2023-03-31T05:32:15.058Z,133.38
2023-03-31T05:35:22.502Z,130.83
2023-03-31T05:38:32.028Z,138.11
2023-03-31T05:41:41.544Z,137.29
2023-03-31T05:44:47.740Z,133.66
2023-03-31T05:47:57.698Z,127.75
2023-03-31T05:51:14.339Z,118.61
2023-03-31T05:54:21.219Z,119.15
2023-03-31T05:57:30.015Z,119.00
2023-03-31T06:00:40.465Z,122.11
2023-03-31T06:03:46.685Z,116.94
2023-03-31T06:06:54.470Z,122.56
2023-03-31T06:10:00.645Z,121.97
2023-03-31T06:13:10.386Z,121.78
2023-03-31T06:16:19.277Z,113.89
2023-03-31T06:19:32.447Z,115.48
2023-03-31T06:22:42.698Z,114.30
2023-03-31T06:25:51.762Z,108.59
2023-03-31T06:29:10.456Z,105.09
2023-03-31T06:32:17.562Z,102.21
2023-03-31T06:35:23.602Z,94.12
2023-03-31T06:38:30.891Z,92.77
2023-03-31T06:41:43.778Z,83.47
2023-03-31T06:44:53.398Z,80.68
2023-03-31T06:47:59.573Z,83.10
2023-03-31T06:51:11.184Z,80.98
2023-03-31T06:54:17.179Z,67.74
2023-03-31T06:57:24.300Z,68.16
2023-03-31T07:00:33.280Z,63.29
2023-03-31T07:03:40.193Z,60.28
2023-03-31T07:06:46.230Z,58.09
2023-03-31T07:09:56.163Z,50.99
2023-03-31T07:13:09.390Z,45.71
2023-03-31T07:16:18.995Z,45.71
2023-03-31T07:19:25.155Z,43.99
2023-03-31T07:22:32.074Z,44.89
2023-03-31T07:25:39.293Z,43.62
2023-03-31T07:28:46.235Z,49.01
2023-03-31T07:31:55.018Z,54.59
2023-03-31T07:35:02.089Z,47.92
2023-03-31T07:38:08.343Z,47.27
2023-03-31T07:41:17.407Z,50.22
2023-03-31T07:44:23.753Z,49.90
2023-03-31T07:47:33.318Z,43.04
2023-03-31T07:50:39.555Z,42.24
2023-03-31T07:53:55.258Z,38.17
2023-03-31T07:57:03.843Z,39.60
2023-03-31T08:00:14.435Z,42.82
2023-03-31T08:03:23.100Z,47.79
2023-03-31T08:06:30.526Z,47.31
2023-03-31T08:09:39.018Z,48.75
2023-03-31T08:12:46.555Z,46.62
2023-03-31T08:15:52.646Z,48.76
2023-03-31T08:19:02.205Z,51.59
2023-03-31T08:22:17.421Z,47.01
2023-03-31T08:25:24.673Z,43.30
2023-03-31T08:28:30.720Z,41.80
2023-03-31T08:31:45.017Z,41.86
2023-03-31T08:34:56.412Z,43.33
2023-03-31T08:38:03.252Z,43.46
2023-03-31T08:41:31.076Z,45.87
2023-03-31T08:44:48.741Z,40.49
2023-03-31T08:48:03.564Z,39.88
2023-03-31T08:51:23.151Z,37.75
2023-03-31T08:54:44.527Z,39.03
2023-03-31T08:58:06.095Z,46.95
2023-03-31T09:01:44.148Z,51.13
2023-03-31T09:05:56.723Z,45.30
2023-03-31T09:09:19.098Z,43.68
2023-03-31T09:12:41.544Z,36.34
2023-03-31T09:16:11.117Z,34.32
2023-03-31T09:19:41.731Z,36.38
2023-03-31T09:22:59.041Z,37.12
2023-03-31T09:26:21.548Z,40.67
2023-03-31T09:29:40.935Z,38.00
2023-03-31T09:32:56.092Z,39.31
2023-03-31T09:36:02.654Z,46.35
2023-03-31T09:39:13.639Z,40.53
2023-03-31T09:42:22.829Z,41.16
2023-03-31T09:45:34.272Z,42.59
2023-03-31T09:48:45.916Z,40.35
2023-03-31T09:52:13.154Z,40.95
2023-03-31T09:55:38.792Z,36.00
2023-03-31T09:58:49.989Z,34.60
2023-03-31T10:02:03.272Z,43.30
2023-03-31T10:05:25.373Z,50.51
2023-03-31T10:08:36.962Z,47.10
2023-03-31T10:11:56.793Z,44.33
2023-03-31T10:15:24.437Z,38.44
2023-03-31T10:18:44.650Z,37.62
2023-03-31T10:21:58.873Z,35.44
2023-03-31T10:25:19.610Z,32.29
2023-03-31T10:28:27.229Z,37.00
2023-03-31T10:31:44.574Z,35.07
2023-03-31T10:34:57.566Z,36.39
2023-03-31T10:38:14.051Z,35.57
2023-03-31T10:41:25.625Z,35.39
2023-03-31T10:44:40.060Z,38.34
2023-03-31T10:47:57.137Z,37.67
2023-03-31T10:51:15.218Z,36.70
2023-03-31T10:54:21.793Z,37.10
2023-03-31T10:57:48.595Z,36.68
2023-03-31T11:01:17.757Z,38.45
2023-03-31T11:05:01.220Z,43.96
2023-03-31T11:08:52.553Z,40.32
2023-03-31T11:12:19.368Z,41.68
2023-03-31T11:15:37.956Z,39.24
2023-03-31T11:19:09.415Z,39.52
2023-03-31T11:22:33.474Z,37.38
2023-03-31T11:25:54.770Z,33.52
2023-03-31T11:29:27.209Z,39.52
2023-03-31T11:32:56.955Z,47.13
2023-03-31T11:36:33.598Z,47.09
2023-03-31T11:40:11.576Z,39.77
2023-03-31T11:43:44.841Z,31.66
2023-03-31T11:47:05.063Z,32.25
2023-03-31T11:50:22.355Z,33.79
2023-03-31T11:53:37.538Z,37.89
2023-03-31T11:56:47.556Z,35.32
2023-03-31T12:00:02.713Z,29.02
2023-03-31T12:03:27.449Z,42.23
2023-03-31T12:06:45.408Z,56.57
2023-03-31T12:10:06.221Z,54.62
2023-03-31T12:13:48.687Z,37.46
2023-03-31T12:17:07.585Z,26.80
2023-03-31T12:20:32.954Z,22.85
2023-03-31T12:23:47.589Z,29.47
2023-03-31T12:27:10.105Z,27.00
2023-03-31T12:30:34.848Z,24.52
2023-03-31T12:33:54.451Z,25.57
2023-03-31T12:37:31.894Z,24.76
2023-03-31T12:40:57.929Z,31.82
2023-03-31T12:44:27.277Z,42.93
2023-03-31T12:48:17.189Z,29.58
2023-03-31T12:51:56.614Z,30.25
2023-03-31T12:55:39.383Z,23.02
2023-03-31T12:58:49.376Z,24.52
2023-03-31T13:02:29.158Z,21.46
2023-03-31T13:05:50.749Z,20.86
2023-03-31T13:09:01.288Z,21.16
2023-03-31T13:12:11.949Z,16.56
2023-03-31T13:15:20.502Z,14.94
2023-03-31T13:18:28.631Z,18.14
2023-03-31T13:21:58.829Z,16.95
2023-03-31T13:25:41.426Z,18.33
2023-03-31T13:28:48.315Z,16.67
2023-03-31T13:32:32.653Z,17.87
2023-03-31T13:35:53.497Z,14.56
2023-03-31T13:39:30.103Z,11.82
2023-03-31T13:43:12.399Z,16.41
2023-03-31T13:47:05.182Z,16.64
2023-03-31T13:50:39.290Z,17.56
2023-03-31T13:54:25.811Z,20.10
2023-03-31T13:58:29.922Z,20.54
2023-03-31T14:02:38.993Z,21.12
2023-03-31T14:05:53.977Z,27.64
2023-03-31T14:09:09.733Z,29.51
2023-03-31T14:12:26.567Z,44.41
2023-03-31T14:15:33.917Z,74.33
2023-03-31T14:19:05.224Z,85.18
2023-03-31T14:22:36.339Z,59.48
2023-03-31T14:26:02.298Z,51.68
2023-03-31T14:29:27.298Z,55.05
2023-03-31T14:32:51.444Z,58.15
2023-03-31T14:36:08.591Z,57.77
2023-03-31T14:39:21.538Z,63.95
2023-03-31T14:42:41.291Z,71.56
2023-03-31T14:45:51.980Z,101.63
2023-03-31T14:48:58.059Z,92.37
2023-03-31T14:52:17.321Z,60.07
2023-03-31T14:55:54.392Z,52.59
2023-03-31T14:59:06.682Z,47.42
2023-03-31T15:02:25.109Z,44.70
2023-03-31T15:05:37.393Z,45.50
2023-03-31T15:08:44.835Z,46.15
2023-03-31T15:12:01.803Z,53.28
2023-03-31T15:15:21.533Z,76.42
2023-03-31T15:18:31.189Z,157.55
2023-03-31T15:21:42.465Z,129.74
2023-03-31T15:24:50.110Z,89.56
2023-03-31T15:28:06.910Z,61.15
2023-03-31T15:31:19.133Z,58.98
2023-03-31T15:34:33.824Z,87.62
2023-03-31T15:37:45.946Z,118.95
2023-03-31T15:40:59.769Z,127.46
2023-03-31T15:44:31.559Z,105.74
2023-03-31T15:47:55.591Z,76.13
2023-03-31T15:51:10.547Z,82.85
2023-03-31T15:54:37.177Z,101.13
2023-03-31T15:57:48.153Z,86.09
2023-03-31T16:01:09.397Z,121.10
2023-03-31T16:04:21.302Z,239.30
2023-03-31T16:07:33.807Z,166.12
2023-03-31T16:10:40.860Z,127.92
2023-03-31T16:13:55.628Z,112.12
2023-03-31T16:17:12.258Z,119.16
2023-03-31T16:20:29.585Z,128.05
2023-03-31T16:23:51.709Z,209.03
2023-03-31T16:27:06.665Z,148.90
2023-03-31T16:30:27.722Z,138.79
2023-03-31T16:33:56.768Z,147.89
2023-03-31T16:37:11.804Z,188.78
2023-03-31T16:40:18.078Z,199.69
2023-03-31T16:43:27.604Z,142.57
2023-03-31T16:46:33.621Z,153.85
2023-03-31T16:49:40.653Z,217.92
2023-03-31T16:52:50.279Z,242.42
2023-03-31T16:55:58.662Z,249.70
2023-03-31T16:59:05.148Z,274.38
2023-03-31T17:02:14.691Z,253.09
2023-03-31T17:05:21.186Z,152.50
2023-03-31T17:08:40.512Z,164.47
2023-03-31T17:11:46.562Z,161.83
2023-03-31T17:14:53.567Z,114.64
2023-03-31T17:18:01.131Z,167.87
2023-03-31T17:21:12.001Z,188.37
2023-03-31T17:24:20.928Z,146.75
2023-03-31T17:27:28.285Z,139.97
2023-03-31T17:30:35.524Z,135.57
2023-03-31T17:33:44.059Z,120.25
2023-03-31T17:36:51.045Z,136.37
2023-03-31T17:40:00.526Z,214.66
2023-03-31T17:43:06.663Z,286.57
2023-03-31T17:46:16.453Z,197.90
2023-03-31T17:49:23.604Z,186.26
2023-03-31T17:52:30.548Z,147.07
2023-03-31T17:55:39.871Z,227.05
2023-03-31T17:58:47.397Z,140.43
2023-03-31T18:01:54.615Z,148.07
2023-03-31T18:05:03.712Z,138.11
2023-03-31T18:08:12.634Z,133.14
2023-03-31T18:11:22.338Z,138.28
2023-03-31T18:14:33.077Z,174.92
2023-03-31T18:17:43.529Z,198.32
2023-03-31T18:20:50.053Z,294.70
2023-03-31T18:23:57.006Z,317.22
2023-03-31T18:27:05.957Z,280.73
2023-03-31T18:30:15.060Z,249.18
2023-03-31T18:33:21.995Z,200.16
2023-03-31T18:36:43.029Z,183.56
2023-03-31T18:39:49.425Z,180.66
2023-03-31T18:42:59.526Z,183.08
2023-03-31T18:46:05.982Z,184.70
2023-03-31T18:49:17.912Z,172.27
2023-03-31T18:52:29.349Z,170.86
2023-03-31T18:55:39.317Z,174.27
2023-03-31T18:58:48.155Z,183.97
2023-03-31T19:01:56.550Z,187.78
2023-03-31T19:05:09.772Z,219.50
2023-03-31T19:08:18.431Z,238.72
2023-03-31T19:11:41.629Z,661.23
2023-03-31T19:14:51.292Z,210.97
2023-03-31T19:17:57.916Z,247.45
2023-03-31T19:21:06.747Z,326.56
2023-03-31T19:24:13.552Z,304.98
2023-03-31T19:27:20.550Z,331.57
2023-03-31T19:30:30.428Z,330.22
2023-03-31T19:33:38.311Z,295.35
2023-03-31T19:36:52.936Z,253.81
2023-03-31T19:40:02.896Z,220.39
2023-03-31T19:43:18.393Z,210.26
2023-03-31T19:46:28.291Z,223.07
2023-03-31T19:49:34.720Z,207.11
2023-03-31T19:52:42.591Z,201.28
2023-03-31T19:55:59.415Z,196.44
2023-03-31T19:59:06.472Z,175.66
2023-03-31T20:02:16.957Z,144.78
2023-03-31T20:05:24.121Z,129.73
2023-03-31T20:08:30.299Z,121.54
2023-03-31T20:11:37.761Z,127.24
2023-03-31T20:14:44.247Z,104.41
2023-03-31T20:17:54.233Z,82.63
2023-03-31T20:21:11.594Z,71.44
2023-03-31T20:24:29.349Z,69.91
2023-03-31T20:27:35.499Z,76.83
2023-03-31T20:30:42.420Z,71.50
2023-03-31T20:33:52.520Z,66.10
2023-03-31T20:36:59.636Z,65.99
2023-03-31T20:40:06.353Z,65.90
2023-03-31T20:43:16.444Z,73.92
2023-03-31T20:46:25.305Z,70.15
2023-03-31T20:49:37.761Z,89.43
2023-03-31T20:52:46.210Z,116.01
2023-03-31T20:55:54.215Z,117.60
2023-03-31T20:59:02.609Z,116.63
2023-03-31T21:02:09.550Z,87.17
2023-03-31T21:05:18.456Z,88.61
2023-03-31T21:08:25.537Z,73.06
2023-03-31T21:11:33.153Z,79.47
2023-03-31T21:14:40.550Z,91.11
2023-03-31T21:17:46.961Z,78.44
2023-03-31T21:21:00.304Z,82.79
2023-03-31T21:24:06.371Z,57.90
2023-03-31T21:27:13.288Z,44.78
2023-03-31T21:30:19.662Z,44.40
2023-03-31T21:33:28.921Z,40.57
2023-03-31T21:36:37.609Z,43.25
2023-03-31T21:39:45.678Z,56.03
2023-03-31T21:42:51.758Z,59.23
2023-03-31T21:46:05.474Z,49.26
2023-03-31T21:49:16.704Z,42.13
2023-03-31T21:52:26.939Z,58.12
2023-03-31T21:55:33.695Z,69.97
2023-03-31T21:58:40.844Z,60.73
2023-03-31T22:01:47.503Z,61.77
2023-03-31T22:04:54.505Z,65.72
2023-03-31T22:08:03.488Z,63.50
2023-03-31T22:11:14.038Z,92.19
2023-03-31T22:14:20.339Z,129.39
2023-03-31T22:17:28.284Z,83.79
2023-03-31T22:20:34.460Z,108.84
2023-03-31T22:23:43.933Z,81.98
2023-03-31T22:26:50.109Z,68.63
2023-03-31T22:29:57.093Z,77.01
2023-03-31T22:33:04.256Z,81.22
2023-03-31T22:36:12.193Z,107.30
2023-03-31T22:39:21.875Z,104.60
2023-03-31T22:42:28.883Z,99.92
2023-03-31T22:45:35.014Z,86.69
2023-03-31T22:48:41.876Z,80.54
2023-03-31T22:51:50.317Z,78.94
2023-03-31T22:54:59.856Z,81.36
2023-03-31T22:58:06.194Z,92.91
2023-03-31T23:01:18.100Z,100.58
2023-03-31T23:04:25.098Z,124.44
2023-03-31T23:07:32.438Z,113.38
2023-03-31T23:10:45.506Z,98.12
2023-03-31T23:13:52.466Z,100.39
2023-03-31T23:16:58.617Z,89.20
2023-03-31T23:20:06.767Z,91.07
2023-03-31T23:23:12.866Z,88.19
2023-03-31T23:26:23.501Z,95.73
2023-03-31T23:29:31.052Z,91.36
2023-03-31T23:32:38.080Z,101.80
2023-03-31T23:35:44.521Z,95.80
2023-03-31T23:38:52.725Z,87.23
2023-03-31T23:42:01.482Z,102.58
2023-03-31T23:45:10.350Z,131.15
2023-03-31T23:48:17.665Z,124.19
2023-03-31T23:51:24.828Z,93.47
2023-03-31T23:54:31.877Z,69.20
2023-03-31T23:57:41.647Z,58.36
